Matsuyama Maru No.11 — JD3027 — position and weather

sailwx.info

Track history (hours):
 
Tides and Currents Weather Stations Pressure Air Temp Water Temp Dewpoint Dewpoint Depression Visibility Wind Speed Wind Dir Waves Ship Positions

Matsuyama Maru No.11

Last reported at 2018-Feb-16 10:35 UTC. Time now 2018-Feb-25 06:02 UTC.
Position N 34°01' E 132°46'.
Warning: this ship's position is 8 days out of date.

Length 104 m; draft 5 m.

Type: Tanker. MMSI: 431001151.

Date/timePositionNaut miles runAvg speedWind from/ knotsBaromVisibWave heightAir tempDewpointWater temp
2018-Feb-16 10:35N 34°01' E 132°46'115.3
2018-Feb-16 10:31N 33°60' E 132°45'714.4
2018-Feb-16 10:00N 33°55' E 132°39'714.3
2018-Feb-16 09:30N 33°49' E 132°33'713.8
2018-Feb-16 09:00N 33°46' E 132°26'713.9
2018-Feb-16 08:30N 33°43' E 132°18'1713.2
2018-Feb-16 07:12N 33°42' E 131°57'313.5
2018-Feb-16 06:59N 33°43' E 131°54'714.0
2018-Feb-16 06:31N 33°45' E 131°46'714.3
2018-Feb-16 06:00N 33°46' E 131°38'714.4
2018-Feb-16 05:31N 33°47' E 131°29'714.4
2018-Feb-16 05:00N 33°47' E 131°20'714.3
2018-Feb-16 04:30N 33°45' E 131°12'5 9.9
2018-Feb-16 04:00N 33°42' E 131°07'4 8.7
2018-Feb-16 03:31N 33°38' E 131°07'0 0.2
2018-Feb-16 03:00N 33°38' E 131°07'0 0.0
2018-Feb-16 02:30N 33°38' E 131°07'0 0.0
2018-Feb-16 02:00N 33°38' E 131°07'0 0.0
2018-Feb-16 01:30N 33°38' E 131°07'0 0.0
2018-Feb-16 01:00N 33°38' E 131°07'0 0.0
2018-Feb-16 00:30N 33°38' E 131°07'0 0.2
2018-Feb-16 00:00N 33°38' E 131°07'3 5.9
2018-Feb-15 23:30N 33°41' E 131°07'4 7.9
2018-Feb-15 23:00N 33°45' E 131°09'4 8.7
2018-Feb-15 22:30N 33°44' E 131°14'1 2.2
2018-Feb-15 22:00N 33°44' E 131°15'0 0.0
2018-Feb-15 21:27N 33°44' E 131°15'0 0.0
2018-Feb-15 20:57N 33°44' E 131°15'0 0.0
2018-Feb-15 20:30N 33°44' E 131°15'0 0.0
2018-Feb-15 19:54N 33°44' E 131°15'0 0.0
2018-Feb-15 19:27N 33°44' E 131°15'0 0.2
2018-Feb-15 18:57N 33°44' E 131°15'0 0.0
2018-Feb-15 18:30N 33°44' E 131°15'0 0.0
2018-Feb-15 17:57N 33°44' E 131°15'0 0.0
2018-Feb-15 17:30N 33°44' E 131°15'0 0.0
2018-Feb-15 17:00N 33°44' E 131°15'0 0.0
2018-Feb-15 16:30N 33°44' E 131°15'0 0.0
2018-Feb-15 16:00N 33°44' E 131°15'0 0.0
2018-Feb-15 15:30N 33°44' E 131°15'0 0.0
2018-Feb-15 15:00N 33°44' E 131°15'0 0.0
2018-Feb-15 14:30N 33°44' E 131°15'0 0.0
2018-Feb-15 14:00N 33°44' E 131°15'0 0.0
2018-Feb-15 13:30N 33°44' E 131°15'0 0.1
2018-Feb-15 13:00N 33°44' E 131°15'0 0.1
2018-Feb-15 12:30N 33°44' E 131°15'0 0.0
2018-Feb-15 12:00N 33°44' E 131°15'0 0.0
2018-Feb-15 11:27N 33°44' E 131°15'0 0.0
2018-Feb-15 11:00N 33°44' E 131°15'0 0.0
2018-Feb-15 10:27N 33°44' E 131°15'0 0.0
2018-Feb-15 10:00N 33°44' E 131°15'0 0.0
2018-Feb-15 09:27N 33°44' E 131°15'0 0.0
2018-Feb-15 08:57N 33°44' E 131°15'0 0.0
2018-Feb-15 08:27N 33°44' E 131°15'0 0.1
2018-Feb-15 08:00N 33°44' E 131°15'0 0.1
2018-Feb-15 07:30N 33°44' E 131°15'0 0.1
2018-Feb-15 07:00N 33°44' E 131°15'0 0.0
2018-Feb-15 06:24N 33°44' E 131°15'0 0.0
2018-Feb-15 06:00N 33°44' E 131°15'0 0.0
2018-Feb-15 05:30N 33°44' E 131°15'0 0.0
2018-Feb-15 05:00N 33°44' E 131°15'0 0.0
2018-Feb-15 04:30N 33°44' E 131°15'0 0.9
2018-Feb-15 04:00N 33°44' E 131°16'511.0
2018-Feb-15 03:30N 33°44' E 131°22'612.6
2018-Feb-15 03:00N 33°43' E 131°30'612.4
2018-Feb-15 02:30N 33°42' E 131°37'611.5
2018-Feb-15 02:00N 33°40' E 131°44'612.2
2018-Feb-15 01:30N 33°36' E 131°49'713.4
2018-Feb-15 01:00N 33°30' E 131°53'713.8
2018-Feb-15 00:31N 33°24' E 131°57'714.2
2018-Feb-15 00:00N 33°18' E 132°01'814.4
2018-Feb-14 23:25N 33°11' E 132°07'30011.3
2018-Feb-13 20:49N 34°25' E 137°57'411.2
2018-Feb-13 20:30N 34°26' E 138°01'711.0
2018-Feb-13 19:49N 34°28' E 138°10'310.1
2018-Feb-13 19:29N 34°29' E 138°13'510.5
2018-Feb-13 19:00N 34°31' E 138°19'610.8
2018-Feb-13 18:29N 34°31' E 138°26'810.9
2018-Feb-13 17:46N 34°32' E 138°36'310.6
2018-Feb-13 17:29N 34°32' E 138°39'510.4
2018-Feb-13 16:59N 34°32' E 138°46'510.2
2018-Feb-13 16:31N 34°33' E 138°52'510.0
2018-Feb-13 16:01N 34°34' E 138°58'611.1
2018-Feb-13 15:29N 34°38' E 139°03'511.1
2018-Feb-13 15:00N 34°41' E 139°07'510.8
2018-Feb-13 14:30N 34°45' E 139°12'611.3
2018-Feb-13 13:58N 34°50' E 139°17'510.9
2018-Feb-13 13:30N 34°53' E 139°22'510.5
2018-Feb-13 13:01N 34°56' E 139°27'510.8
2018-Feb-13 12:30N 34°59' E 139°32'611.5
2018-Feb-13 12:00N 35°03' E 139°38'612.1
2018-Feb-13 11:30N 35°07' E 139°43'612.9
2018-Feb-13 11:00N 35°13' E 139°46'612.1
2018-Feb-13 10:31N 35°18' E 139°44'611.9
2018-Feb-13 10:00N 35°24' E 139°40'1 1.6
2018-Feb-13 09:31N 35°24' E 139°40'0 0.0
2018-Feb-13 09:01N 35°24' E 139°40'0 0.0
2018-Feb-13 08:31N 35°24' E 139°40'0 0.0
2018-Feb-13 08:00N 35°24' E 139°40'0 0.0
2018-Feb-13 07:30N 35°24' E 139°40'0 0.0
2018-Feb-13 07:00N 35°24' E 139°40'0 0.0
2018-Feb-13 06:30N 35°24' E 139°40'0 0.0
2018-Feb-13 06:00N 35°24' E 139°40'0 0.0
2018-Feb-13 05:30N 35°24' E 139°40'0 0.0
2018-Feb-13 05:01N 35°24' E 139°40'0 0.0
2018-Feb-13 04:30N 35°24' E 139°40'0 0.0
2018-Feb-13 04:00N 35°24' E 139°40'0 0.0
2018-Feb-13 03:31N 35°24' E 139°40'0 0.6
2018-Feb-13 03:00N 35°24' E 139°40'2 4.9
2018-Feb-13 02:30N 35°23' E 139°42'1 2.4
2018-Feb-13 01:58N 35°23' E 139°44'0 0.0
2018-Feb-13 01:28N 35°23' E 139°44'0 0.0
2018-Feb-13 00:58N 35°23' E 139°44'0 0.1
2018-Feb-13 00:24N 35°23' E 139°44'3 6.8
2018-Feb-13 00:00N 35°20' E 139°43'611.6
2018-Feb-12 23:31N 35°15' E 139°47'713.3
2018-Feb-12 23:00N 35°08' E 139°46'713.6
2018-Feb-12 22:30N 35°02' E 139°44'612.0
2018-Feb-12 22:00N 34°56' E 139°43'5 9.6
2018-Feb-12 21:29N 34°52' E 139°47'1010.5
2018-Feb-12 20:31N 34°53' E 139°60'311.8
2018-Feb-12 20:15N 34°54' E 140°03'412.0
2018-Feb-12 19:55N 34°56' E 140°07'36912.6
2018-Feb-11 14:40N 40°59' E 141°35'513.7
2018-Feb-11 14:18N 41°04' E 141°35'414.0
2018-Feb-11 14:00N 41°08' E 141°35'1114.7
2018-Feb-11 13:15N 41°19' E 141°35'414.3
2018-Feb-11 12:56N 41°23' E 141°35'714.6
2018-Feb-11 12:29N 41°30' E 141°33'815.2
2018-Feb-11 11:59N 41°36' E 141°27'713.8
2018-Feb-11 11:30N 41°42' E 141°23'713.8
2018-Feb-11 11:00N 41°48' E 141°18'3 0.2
2018-Feb-10 22:41N 41°50' E 141°16'212.3
2018-Feb-10 22:30N 41°48' E 141°18'39810.8
2018-Feb-09 09:31N 35°16' E 139°46'9 9.2
2018-Feb-09 08:30N 35°24' E 139°40'0 0.1
2018-Feb-09 08:01N 35°24' E 139°40'0 0.0
2018-Feb-09 07:30N 35°24' E 139°40'0 0.0
2018-Feb-09 07:00N 35°24' E 139°40'0 0.0
2018-Feb-09 06:00N 35°24' E 139°40'0 0.0
2018-Feb-09 05:30N 35°24' E 139°40'0 0.0
2018-Feb-09 05:00N 35°24' E 139°40'0 0.0
2018-Feb-09 04:30N 35°24' E 139°40'0 0.0
2018-Feb-09 04:00N 35°24' E 139°40'0 0.0
2018-Feb-09 03:30N 35°24' E 139°40'2 1.2
2018-Feb-09 02:00N 35°24' E 139°42'713.2
2018-Feb-09 01:30N 35°28' E 139°48'2 0.1
2018-Feb-08 04:30N 35°30' E 139°47'1 0.5
2018-Feb-08 01:30N 35°30' E 139°45'0 0.0
2018-Feb-08 01:00N 35°30' E 139°45'0 0.0
2018-Feb-08 00:30N 35°30' E 139°45'0 0.0
2018-Feb-08 00:00N 35°30' E 139°45'0 0.0
2018-Feb-07 23:31N 35°30' E 139°45'3 6.0
2018-Feb-07 23:01N 35°29' E 139°42'3 6.5
2018-Feb-07 22:30N 35°27' E 139°45'0 0.5
2018-Feb-07 22:00N 35°26' E 139°45'2 3.9
2018-Feb-07 21:31N 35°25' E 139°46'40411.7
2018-Feb-06 10:51N 33°13' E 132°03'  
Track history (hours):
 
Tides and Currents Weather Stations Pressure Air Temp Water Temp Dewpoint Dewpoint Depression Visibility Wind Speed Wind Dir Waves Ship Positions

Matsuyama Maru No.11

Last reported at 2018-Feb-16 10:35 UTC. Time now 2018-Feb-25 06:02 UTC.
Position N 34°01' E 132°46'.
Warning: this ship's position is 8 days out of date.

Length 104 m; draft 5 m.

Type: Tanker. MMSI: 431001151.

Date/timePositionNaut miles runAvg speedWind from/ knotsBaromVisibWave heightAir tempDewpointWater temp
2018-Feb-16 10:35N 34°01' E 132°46'115.3
2018-Feb-16 10:31N 33°60' E 132°45'714.4
2018-Feb-16 10:00N 33°55' E 132°39'714.3
2018-Feb-16 09:30N 33°49' E 132°33'713.8
2018-Feb-16 09:00N 33°46' E 132°26'713.9
2018-Feb-16 08:30N 33°43' E 132°18'1713.2
2018-Feb-16 07:12N 33°42' E 131°57'313.5
2018-Feb-16 06:59N 33°43' E 131°54'714.0
2018-Feb-16 06:31N 33°45' E 131°46'714.3
2018-Feb-16 06:00N 33°46' E 131°38'714.4
2018-Feb-16 05:31N 33°47' E 131°29'714.4
2018-Feb-16 05:00N 33°47' E 131°20'714.3
2018-Feb-16 04:30N 33°45' E 131°12'5 9.9
2018-Feb-16 04:00N 33°42' E 131°07'4 8.7
2018-Feb-16 03:31N 33°38' E 131°07'0 0.2
2018-Feb-16 03:00N 33°38' E 131°07'0 0.0
2018-Feb-16 02:30N 33°38' E 131°07'0 0.0
2018-Feb-16 02:00N 33°38' E 131°07'0 0.0
2018-Feb-16 01:30N 33°38' E 131°07'0 0.0
2018-Feb-16 01:00N 33°38' E 131°07'0 0.0
2018-Feb-16 00:30N 33°38' E 131°07'0 0.2
2018-Feb-16 00:00N 33°38' E 131°07'3 5.9
2018-Feb-15 23:30N 33°41' E 131°07'4 7.9
2018-Feb-15 23:00N 33°45' E 131°09'4 8.7
2018-Feb-15 22:30N 33°44' E 131°14'1 2.2
2018-Feb-15 22:00N 33°44' E 131°15'0 0.0
2018-Feb-15 21:27N 33°44' E 131°15'0 0.0
2018-Feb-15 20:57N 33°44' E 131°15'0 0.0
2018-Feb-15 20:30N 33°44' E 131°15'0 0.0
2018-Feb-15 19:54N 33°44' E 131°15'0 0.0
2018-Feb-15 19:27N 33°44' E 131°15'0 0.2
2018-Feb-15 18:57N 33°44' E 131°15'0 0.0
2018-Feb-15 18:30N 33°44' E 131°15'0 0.0
2018-Feb-15 17:57N 33°44' E 131°15'0 0.0
2018-Feb-15 17:30N 33°44' E 131°15'0 0.0
2018-Feb-15 17:00N 33°44' E 131°15'0 0.0
2018-Feb-15 16:30N 33°44' E 131°15'0 0.0
2018-Feb-15 16:00N 33°44' E 131°15'0 0.0
2018-Feb-15 15:30N 33°44' E 131°15'0 0.0
2018-Feb-15 15:00N 33°44' E 131°15'0 0.0
2018-Feb-15 14:30N 33°44' E 131°15'0 0.0
2018-Feb-15 14:00N 33°44' E 131°15'0 0.0
2018-Feb-15 13:30N 33°44' E 131°15'0 0.1
2018-Feb-15 13:00N 33°44' E 131°15'0 0.1
2018-Feb-15 12:30N 33°44' E 131°15'0 0.0
2018-Feb-15 12:00N 33°44' E 131°15'0 0.0
2018-Feb-15 11:27N 33°44' E 131°15'0 0.0
2018-Feb-15 11:00N 33°44' E 131°15'0 0.0
2018-Feb-15 10:27N 33°44' E 131°15'0 0.0
2018-Feb-15 10:00N 33°44' E 131°15'0 0.0
2018-Feb-15 09:27N 33°44' E 131°15'0 0.0
2018-Feb-15 08:57N 33°44' E 131°15'0 0.0
2018-Feb-15 08:27N 33°44' E 131°15'0 0.1
2018-Feb-15 08:00N 33°44' E 131°15'0 0.1
2018-Feb-15 07:30N 33°44' E 131°15'0 0.1
2018-Feb-15 07:00N 33°44' E 131°15'0 0.0
2018-Feb-15 06:24N 33°44' E 131°15'0 0.0
2018-Feb-15 06:00N 33°44' E 131°15'0 0.0
2018-Feb-15 05:30N 33°44' E 131°15'0 0.0
2018-Feb-15 05:00N 33°44' E 131°15'0 0.0
2018-Feb-15 04:30N 33°44' E 131°15'0 0.9
2018-Feb-15 04:00N 33°44' E 131°16'511.0
2018-Feb-15 03:30N 33°44' E 131°22'612.6
2018-Feb-15 03:00N 33°43' E 131°30'612.4
2018-Feb-15 02:30N 33°42' E 131°37'611.5
2018-Feb-15 02:00N 33°40' E 131°44'612.2
2018-Feb-15 01:30N 33°36' E 131°49'713.4
2018-Feb-15 01:00N 33°30' E 131°53'713.8
2018-Feb-15 00:31N 33°24' E 131°57'714.2
2018-Feb-15 00:00N 33°18' E 132°01'814.4
2018-Feb-14 23:25N 33°11' E 132°07'30011.3
2018-Feb-13 20:49N 34°25' E 137°57'411.2
2018-Feb-13 20:30N 34°26' E 138°01'711.0
2018-Feb-13 19:49N 34°28' E 138°10'310.1
2018-Feb-13 19:29N 34°29' E 138°13'510.5
2018-Feb-13 19:00N 34°31' E 138°19'610.8
2018-Feb-13 18:29N 34°31' E 138°26'810.9
2018-Feb-13 17:46N 34°32' E 138°36'310.6
2018-Feb-13 17:29N 34°32' E 138°39'510.4
2018-Feb-13 16:59N 34°32' E 138°46'510.2
2018-Feb-13 16:31N 34°33' E 138°52'510.0
2018-Feb-13 16:01N 34°34' E 138°58'611.1
2018-Feb-13 15:29N 34°38' E 139°03'511.1
2018-Feb-13 15:00N 34°41' E 139°07'510.8
2018-Feb-13 14:30N 34°45' E 139°12'611.3
2018-Feb-13 13:58N 34°50' E 139°17'510.9
2018-Feb-13 13:30N 34°53' E 139°22'510.5
2018-Feb-13 13:01N 34°56' E 139°27'510.8
2018-Feb-13 12:30N 34°59' E 139°32'611.5
2018-Feb-13 12:00N 35°03' E 139°38'612.1
2018-Feb-13 11:30N 35°07' E 139°43'612.9
2018-Feb-13 11:00N 35°13' E 139°46'612.1
2018-Feb-13 10:31N 35°18' E 139°44'611.9
2018-Feb-13 10:00N 35°24' E 139°40'1 1.6
2018-Feb-13 09:31N 35°24' E 139°40'0 0.0
2018-Feb-13 09:01N 35°24' E 139°40'0 0.0
2018-Feb-13 08:31N 35°24' E 139°40'0 0.0
2018-Feb-13 08:00N 35°24' E 139°40'0 0.0
2018-Feb-13 07:30N 35°24' E 139°40'0 0.0
2018-Feb-13 07:00N 35°24' E 139°40'0 0.0
2018-Feb-13 06:30N 35°24' E 139°40'0 0.0
2018-Feb-13 06:00N 35°24' E 139°40'0 0.0
2018-Feb-13 05:30N 35°24' E 139°40'0 0.0
2018-Feb-13 05:01N 35°24' E 139°40'0 0.0
2018-Feb-13 04:30N 35°24' E 139°40'0 0.0
2018-Feb-13 04:00N 35°24' E 139°40'0 0.0
2018-Feb-13 03:31N 35°24' E 139°40'0 0.6
2018-Feb-13 03:00N 35°24' E 139°40'2 4.9
2018-Feb-13 02:30N 35°23' E 139°42'1 2.4
2018-Feb-13 01:58N 35°23' E 139°44'0 0.0
2018-Feb-13 01:28N 35°23' E 139°44'0 0.0
2018-Feb-13 00:58N 35°23' E 139°44'0 0.1
2018-Feb-13 00:24N 35°23' E 139°44'3 6.8
2018-Feb-13 00:00N 35°20' E 139°43'611.6
2018-Feb-12 23:31N 35°15' E 139°47'713.3
2018-Feb-12 23:00N 35°08' E 139°46'713.6
2018-Feb-12 22:30N 35°02' E 139°44'612.0
2018-Feb-12 22:00N 34°56' E 139°43'5 9.6
2018-Feb-12 21:29N 34°52' E 139°47'1010.5
2018-Feb-12 20:31N 34°53' E 139°60'311.8
2018-Feb-12 20:15N 34°54' E 140°03'412.0
2018-Feb-12 19:55N 34°56' E 140°07'36912.6
2018-Feb-11 14:40N 40°59' E 141°35'513.7
2018-Feb-11 14:18N 41°04' E 141°35'414.0
2018-Feb-11 14:00N 41°08' E 141°35'1114.7
2018-Feb-11 13:15N 41°19' E 141°35'414.3
2018-Feb-11 12:56N 41°23' E 141°35'714.6
2018-Feb-11 12:29N 41°30' E 141°33'815.2
2018-Feb-11 11:59N 41°36' E 141°27'713.8
2018-Feb-11 11:30N 41°42' E 141°23'713.8
2018-Feb-11 11:00N 41°48' E 141°18'3 0.2
2018-Feb-10 22:41N 41°50' E 141°16'212.3
2018-Feb-10 22:30N 41°48' E 141°18'39810.8
2018-Feb-09 09:31N 35°16' E 139°46'9 9.2
2018-Feb-09 08:30N 35°24' E 139°40'0 0.1
2018-Feb-09 08:01N 35°24' E 139°40'0 0.0
2018-Feb-09 07:30N 35°24' E 139°40'0 0.0
2018-Feb-09 07:00N 35°24' E 139°40'0 0.0
2018-Feb-09 06:00N 35°24' E 139°40'0 0.0
2018-Feb-09 05:30N 35°24' E 139°40'0 0.0
2018-Feb-09 05:00N 35°24' E 139°40'0 0.0
2018-Feb-09 04:30N 35°24' E 139°40'0 0.0
2018-Feb-09 04:00N 35°24' E 139°40'0 0.0
2018-Feb-09 03:30N 35°24' E 139°40'2 1.2
2018-Feb-09 02:00N 35°24' E 139°42'713.2
2018-Feb-09 01:30N 35°28' E 139°48'2 0.1
2018-Feb-08 04:30N 35°30' E 139°47'1 0.5
2018-Feb-08 01:30N 35°30' E 139°45'0 0.0
2018-Feb-08 01:00N 35°30' E 139°45'0 0.0
2018-Feb-08 00:30N 35°30' E 139°45'0 0.0
2018-Feb-08 00:00N 35°30' E 139°45'0 0.0
2018-Feb-07 23:31N 35°30' E 139°45'3 6.0
2018-Feb-07 23:01N 35°29' E 139°42'3 6.5
2018-Feb-07 22:30N 35°27' E 139°45'0 0.5
2018-Feb-07 22:00N 35°26' E 139°45'2 3.9
2018-Feb-07 21:31N 35°25' E 139°46'40411.7
2018-Feb-06 10:51N 33°13' E 132°03'  

Dump ship's entire track history